sensor_id;sensor_type;location;lat;lon;timestamp;P1;durP1;ratioP1;P2;durP2;ratioP2
12842;SDS011;35724;49.324;-123.118;2023-08-21T00:07:14;28.23;;;25.52;;
12842;SDS011;35724;49.324;-123.118;2023-08-21T00:17:23;23.85;;;21.70;;
12842;SDS011;35724;49.324;-123.118;2023-08-21T00:27:30;28.17;;;25.60;;
12842;SDS011;35724;49.324;-123.118;2023-08-21T00:37:38;27.48;;;24.95;;
12842;SDS011;35724;49.324;-123.118;2023-08-21T00:47:46;21.77;;;19.83;;
12842;SDS011;35724;49.324;-123.118;2023-08-21T00:57:55;18.98;;;17.17;;
12842;SDS011;35724;49.324;-123.118;2023-08-21T01:08:04;15.52;;;13.55;;
12842;SDS011;35724;49.324;-123.118;2023-08-21T01:18:21;15.43;;;12.48;;
12842;SDS011;35724;49.324;-123.118;2023-08-21T01:28:32;14.32;;;12.38;;
12842;SDS011;35724;49.324;-123.118;2023-08-21T01:38:39;16.00;;;13.23;;
12842;SDS011;35724;49.324;-123.118;2023-08-21T01:48:49;15.10;;;12.13;;
12842;SDS011;35724;49.324;-123.118;2023-08-21T01:58:56;15.70;;;13.73;;
12842;SDS011;35724;49.324;-123.118;2023-08-21T02:09:05;15.48;;;13.38;;
12842;SDS011;35724;49.324;-123.118;2023-08-21T02:19:12;10.70;;;8.88;;
12842;SDS011;35724;49.324;-123.118;2023-08-21T02:29:20;10.23;;;7.22;;
12842;SDS011;35724;49.324;-123.118;2023-08-21T02:39:27;11.40;;;9.88;;
12842;SDS011;35724;49.324;-123.118;2023-08-21T02:49:37;10.85;;;8.95;;
12842;SDS011;35724;49.324;-123.118;2023-08-21T02:59:44;7.78;;;6.97;;
12842;SDS011;35724;49.324;-123.118;2023-08-21T03:09:52;5.95;;;5.45;;
12842;SDS011;35724;49.324;-123.118;2023-08-21T03:19:59;7.50;;;6.43;;
12842;SDS011;35724;49.324;-123.118;2023-08-21T03:30:11;5.38;;;4.75;;
12842;SDS011;35724;49.324;-123.118;2023-08-21T03:40:18;7.40;;;6.50;;
12842;SDS011;35724;49.324;-123.118;2023-08-21T03:50:29;8.57;;;7.63;;
12842;SDS011;35724;49.324;-123.118;2023-08-21T04:00:36;11.35;;;9.07;;
12842;SDS011;35724;49.324;-123.118;2023-08-21T04:10:45;12.60;;;11.40;;
12842;SDS011;35724;49.324;-123.118;2023-08-21T04:20:52;12.57;;;11.30;;
12842;SDS011;35724;49.324;-123.118;2023-08-21T04:31:01;12.75;;;11.57;;
12842;SDS011;35724;49.324;-123.118;2023-08-21T04:41:11;13.55;;;12.18;;
12842;SDS011;35724;49.324;-123.118;2023-08-21T04:51:23;13.07;;;11.80;;
12842;SDS011;35724;49.324;-123.118;2023-08-21T05:01:30;12.73;;;11.43;;
12842;SDS011;35724;49.324;-123.118;2023-08-21T05:11:39;13.48;;;12.07;;
12842;SDS011;35724;49.324;-123.118;2023-08-21T05:21:47;13.57;;;12.27;;
12842;SDS011;35724;49.324;-123.118;2023-08-21T05:31:56;14.00;;;12.60;;
12842;SDS011;35724;49.324;-123.118;2023-08-21T05:42:03;14.38;;;13.15;;
12842;SDS011;35724;49.324;-123.118;2023-08-21T05:52:13;15.90;;;14.50;;
12842;SDS011;35724;49.324;-123.118;2023-08-21T06:02:21;16.67;;;15.27;;
12842;SDS011;35724;49.324;-123.118;2023-08-21T06:12:29;17.88;;;16.27;;
12842;SDS011;35724;49.324;-123.118;2023-08-21T06:22:37;19.63;;;17.90;;
12842;SDS011;35724;49.324;-123.118;2023-08-21T06:32:45;21.90;;;19.95;;
12842;SDS011;35724;49.324;-123.118;2023-08-21T06:42:52;24.20;;;22.02;;
12842;SDS011;35724;49.324;-123.118;2023-08-21T06:53:05;26.40;;;24.13;;
12842;SDS011;35724;49.324;-123.118;2023-08-21T07:03:13;26.73;;;24.48;;
12842;SDS011;35724;49.324;-123.118;2023-08-21T07:13:21;30.23;;;27.73;;
12842;SDS011;35724;49.324;-123.118;2023-08-21T07:23:28;32.85;;;30.15;;
12842;SDS011;35724;49.324;-123.118;2023-08-21T07:33:37;34.78;;;31.90;;
12842;SDS011;35724;49.324;-123.118;2023-08-21T07:43:44;35.35;;;32.53;;
12842;SDS011;35724;49.324;-123.118;2023-08-21T07:53:53;35.33;;;32.33;;
12842;SDS011;35724;49.324;-123.118;2023-08-21T08:04:02;36.97;;;33.97;;
12842;SDS011;35724;49.324;-123.118;2023-08-21T08:14:11;36.42;;;33.33;;
12842;SDS011;35724;49.324;-123.118;2023-08-21T08:24:18;34.05;;;31.25;;
12842;SDS011;35724;49.324;-123.118;2023-08-21T08:34:27;34.63;;;31.70;;
12842;SDS011;35724;49.324;-123.118;2023-08-21T08:44:34;35.50;;;32.50;;
12842;SDS011;35724;49.324;-123.118;2023-08-21T08:54:44;38.03;;;34.92;;
12842;SDS011;35724;49.324;-123.118;2023-08-21T09:04:52;38.20;;;35.10;;
12842;SDS011;35724;49.324;-123.118;2023-08-21T09:15:00;40.10;;;36.72;;
12842;SDS011;35724;49.324;-123.118;2023-08-21T09:25:14;41.05;;;37.70;;
12842;SDS011;35724;49.324;-123.118;2023-08-21T09:35:23;42.20;;;38.75;;
12842;SDS011;35724;49.324;-123.118;2023-08-21T09:45:31;43.38;;;39.75;;
12842;SDS011;35724;49.324;-123.118;2023-08-21T09:55:42;44.88;;;41.08;;
12842;SDS011;35724;49.324;-123.118;2023-08-21T10:05:49;45.72;;;41.97;;
12842;SDS011;35724;49.324;-123.118;2023-08-21T10:15:58;45.88;;;42.15;;
12842;SDS011;35724;49.324;-123.118;2023-08-21T10:26:07;47.45;;;43.53;;
12842;SDS011;35724;49.324;-123.118;2023-08-21T10:36:16;49.75;;;45.55;;
12842;SDS011;35724;49.324;-123.118;2023-08-21T10:47:13;51.17;;;47.08;;
12842;SDS011;35724;49.324;-123.118;2023-08-21T10:57:24;52.88;;;48.60;;
12842;SDS011;35724;49.324;-123.118;2023-08-21T11:07:36;50.08;;;45.97;;
12842;SDS011;35724;49.324;-123.118;2023-08-21T11:17:52;48.88;;;44.88;;
12842;SDS011;35724;49.324;-123.118;2023-08-21T11:28:00;47.63;;;43.53;;
12842;SDS011;35724;49.324;-123.118;2023-08-21T11:38:14;46.17;;;42.35;;
12842;SDS011;35724;49.324;-123.118;2023-08-21T11:48:22;46.63;;;42.63;;
12842;SDS011;35724;49.324;-123.118;2023-08-21T11:58:31;44.92;;;41.22;;
12842;SDS011;35724;49.324;-123.118;2023-08-21T12:08:38;46.60;;;42.80;;
12842;SDS011;35724;49.324;-123.118;2023-08-21T12:18:47;47.30;;;43.50;;
12842;SDS011;35724;49.324;-123.118;2023-08-21T12:28:55;47.20;;;43.30;;
12842;SDS011;35724;49.324;-123.118;2023-08-21T12:39:04;45.17;;;41.50;;
12842;SDS011;35724;49.324;-123.118;2023-08-21T12:49:11;45.63;;;41.80;;
12842;SDS011;35724;49.324;-123.118;2023-08-21T12:59:19;42.88;;;39.17;;
12842;SDS011;35724;49.324;-123.118;2023-08-21T13:09:27;41.30;;;37.83;;
12842;SDS011;35724;49.324;-123.118;2023-08-21T13:19:35;38.58;;;35.38;;
12842;SDS011;35724;49.324;-123.118;2023-08-21T13:29:42;37.42;;;34.40;;
12842;SDS011;35724;49.324;-123.118;2023-08-21T13:39:50;37.90;;;34.70;;
12842;SDS011;35724;49.324;-123.118;2023-08-21T13:49:58;38.75;;;35.58;;
12842;SDS011;35724;49.324;-123.118;2023-08-21T14:00:10;40.58;;;37.17;;
12842;SDS011;35724;49.324;-123.118;2023-08-21T14:10:17;41.70;;;38.20;;
12842;SDS011;35724;49.324;-123.118;2023-08-21T14:20:26;42.85;;;39.25;;
12842;SDS011;35724;49.324;-123.118;2023-08-21T14:30:33;43.28;;;39.53;;
12842;SDS011;35724;49.324;-123.118;2023-08-21T14:40:41;43.97;;;40.35;;
12842;SDS011;35724;49.324;-123.118;2023-08-21T14:50:48;32.30;;;29.65;;
12842;SDS011;35724;49.324;-123.118;2023-08-21T15:00:57;30.20;;;27.40;;
12842;SDS011;35724;49.324;-123.118;2023-08-21T15:11:04;29.27;;;26.88;;
12842;SDS011;35724;49.324;-123.118;2023-08-21T15:21:14;27.30;;;24.92;;
12842;SDS011;35724;49.324;-123.118;2023-08-21T15:31:21;29.35;;;26.65;;
12842;SDS011;35724;49.324;-123.118;2023-08-21T15:41:29;25.80;;;23.38;;
12842;SDS011;35724;49.324;-123.118;2023-08-21T15:51:36;27.33;;;24.83;;
12842;SDS011;35724;49.324;-123.118;2023-08-21T16:01:47;27.05;;;24.75;;
12842;SDS011;35724;49.324;-123.118;2023-08-21T16:11:53;25.80;;;23.60;;
12842;SDS011;35724;49.324;-123.118;2023-08-21T16:22:03;26.67;;;24.38;;
12842;SDS011;35724;49.324;-123.118;2023-08-21T16:32:10;27.63;;;25.23;;
12842;SDS011;35724;49.324;-123.118;2023-08-21T16:42:19;24.95;;;22.77;;
12842;SDS011;35724;49.324;-123.118;2023-08-21T16:52:26;19.25;;;17.55;;
12842;SDS011;35724;49.324;-123.118;2023-08-21T17:02:35;18.05;;;16.45;;
12842;SDS011;35724;49.324;-123.118;2023-08-21T17:12:43;17.15;;;15.75;;
12842;SDS011;35724;49.324;-123.118;2023-08-21T17:22:52;18.17;;;16.58;;
12842;SDS011;35724;49.324;-123.118;2023-08-21T17:32:59;17.73;;;16.02;;
12842;SDS011;35724;49.324;-123.118;2023-08-21T17:43:09;13.43;;;12.23;;
12842;SDS011;35724;49.324;-123.118;2023-08-21T17:53:16;11.10;;;10.05;;
12842;SDS011;35724;49.324;-123.118;2023-08-21T18:03:25;9.07;;;8.05;;
12842;SDS011;35724;49.324;-123.118;2023-08-21T18:13:32;8.05;;;6.20;;
12842;SDS011;35724;49.324;-123.118;2023-08-21T18:23:40;5.78;;;4.70;;
12842;SDS011;35724;49.324;-123.118;2023-08-21T18:33:47;3.58;;;3.30;;
12842;SDS011;35724;49.324;-123.118;2023-08-21T18:43:56;3.70;;;3.38;;
12842;SDS011;35724;49.324;-123.118;2023-08-21T18:54:03;4.30;;;3.25;;
12842;SDS011;35724;49.324;-123.118;2023-08-21T19:04:12;4.20;;;3.47;;
12842;SDS011;35724;49.324;-123.118;2023-08-21T19:14:19;4.93;;;3.75;;
12842;SDS011;35724;49.324;-123.118;2023-08-21T19:24:27;5.45;;;3.60;;
12842;SDS011;35724;49.324;-123.118;2023-08-21T19:34:34;4.13;;;3.35;;
12842;SDS011;35724;49.324;-123.118;2023-08-21T19:44:43;5.22;;;3.10;;
12842;SDS011;35724;49.324;-123.118;2023-08-21T19:54:50;3.47;;;3.08;;
12842;SDS011;35724;49.324;-123.118;2023-08-21T20:04:59;4.93;;;4.43;;
12842;SDS011;35724;49.324;-123.118;2023-08-21T20:15:06;4.93;;;4.53;;
12842;SDS011;35724;49.324;-123.118;2023-08-21T20:25:16;5.88;;;4.70;;
12842;SDS011;35724;49.324;-123.118;2023-08-21T20:35:23;6.10;;;5.32;;
12842;SDS011;35724;49.324;-123.118;2023-08-21T20:45:31;6.10;;;5.60;;
12842;SDS011;35724;49.324;-123.118;2023-08-21T20:55:39;6.10;;;5.50;;
12842;SDS011;35724;49.324;-123.118;2023-08-21T21:05:48;5.95;;;5.43;;
12842;SDS011;35724;49.324;-123.118;2023-08-21T21:15:55;5.80;;;5.20;;
12842;SDS011;35724;49.324;-123.118;2023-08-21T21:26:04;5.47;;;4.97;;
12842;SDS011;35724;49.324;-123.118;2023-08-21T21:36:11;6.28;;;5.40;;
12842;SDS011;35724;49.324;-123.118;2023-08-21T21:46:24;5.70;;;5.10;;
12842;SDS011;35724;49.324;-123.118;2023-08-21T21:56:32;6.65;;;4.80;;
12842;SDS011;35724;49.324;-123.118;2023-08-21T22:06:41;5.45;;;4.28;;
12842;SDS011;35724;49.324;-123.118;2023-08-21T22:16:48;6.13;;;4.80;;
12842;SDS011;35724;49.324;-123.118;2023-08-21T22:26:57;7.22;;;5.90;;
12842;SDS011;35724;49.324;-123.118;2023-08-21T22:37:06;7.43;;;6.78;;
12842;SDS011;35724;49.324;-123.118;2023-08-21T22:47:15;6.75;;;6.10;;
12842;SDS011;35724;49.324;-123.118;2023-08-21T22:57:23;7.97;;;6.57;;
12842;SDS011;35724;49.324;-123.118;2023-08-21T23:07:32;7.03;;;6.43;;
12842;SDS011;35724;49.324;-123.118;2023-08-21T23:17:40;6.88;;;6.28;;
12842;SDS011;35724;49.324;-123.118;2023-08-21T23:27:48;7.35;;;6.65;;
12842;SDS011;35724;49.324;-123.118;2023-08-21T23:37:56;7.22;;;6.53;;
12842;SDS011;35724;49.324;-123.118;2023-08-21T23:48:05;8.02;;;7.03;;
12842;SDS011;35724;49.324;-123.118;2023-08-21T23:58:13;8.15;;;7.40;;
